sensor_id;sensor_type;location;lat;lon;timestamp;temperature;humidity
1329;DHT22;658;48.820;9.354;2023-06-19T00:03:01;26.00;43.50
1329;DHT22;658;48.820;9.354;2023-06-19T00:07:03;26.00;43.70
1329;DHT22;658;48.820;9.354;2023-06-19T00:11:03;26.00;43.90
1329;DHT22;658;48.820;9.354;2023-06-19T00:15:04;25.90;43.70
1329;DHT22;658;48.820;9.354;2023-06-19T00:19:05;25.90;43.90
1329;DHT22;658;48.820;9.354;2023-06-19T00:23:06;25.90;43.90
1329;DHT22;658;48.820;9.354;2023-06-19T00:27:11;25.90;44.10
1329;DHT22;658;48.820;9.354;2023-06-19T00:31:11;25.90;44.50
1329;DHT22;658;48.820;9.354;2023-06-19T00:35:16;25.90;44.40
1329;DHT22;658;48.820;9.354;2023-06-19T00:39:18;25.90;44.20
1329;DHT22;658;48.820;9.354;2023-06-19T00:43:18;25.90;44.30
1329;DHT22;658;48.820;9.354;2023-06-19T00:47:19;25.90;44.20
1329;DHT22;658;48.820;9.354;2023-06-19T00:51:22;25.90;44.20
1329;DHT22;658;48.820;9.354;2023-06-19T00:55:26;25.90;44.20
1329;DHT22;658;48.820;9.354;2023-06-19T00:59:28;25.90;44.90
1329;DHT22;658;48.820;9.354;2023-06-19T01:03:29;25.90;44.60
1329;DHT22;658;48.820;9.354;2023-06-19T01:11:56;25.80;45.30
1329;DHT22;658;48.820;9.354;2023-06-19T01:15:58;25.80;45.20
1329;DHT22;658;48.820;9.354;2023-06-19T01:19:59;25.80;45.40
1329;DHT22;658;48.820;9.354;2023-06-19T01:24:01;25.80;45.30
1329;DHT22;658;48.820;9.354;2023-06-19T01:28:08;25.80;45.60
1329;DHT22;658;48.820;9.354;2023-06-19T01:32:15;25.80;45.80
1329;DHT22;658;48.820;9.354;2023-06-19T01:36:18;25.70;45.80
1329;DHT22;658;48.820;9.354;2023-06-19T01:40:23;25.80;45.90
1329;DHT22;658;48.820;9.354;2023-06-19T01:44:26;25.80;45.90
1329;DHT22;658;48.820;9.354;2023-06-19T01:48:29;25.70;45.80
1329;DHT22;658;48.820;9.354;2023-06-19T01:52:29;25.70;45.80
1329;DHT22;658;48.820;9.354;2023-06-19T01:56:30;25.70;45.90
1329;DHT22;658;48.820;9.354;2023-06-19T02:00:31;25.70;46.00
1329;DHT22;658;48.820;9.354;2023-06-19T02:04:35;25.70;46.10
1329;DHT22;658;48.820;9.354;2023-06-19T02:08:36;25.70;46.40
1329;DHT22;658;48.820;9.354;2023-06-19T02:12:36;25.70;46.50
1329;DHT22;658;48.820;9.354;2023-06-19T02:16:37;25.70;46.70
1329;DHT22;658;48.820;9.354;2023-06-19T02:20:38;25.60;46.70
1329;DHT22;658;48.820;9.354;2023-06-19T02:24:39;25.60;46.70
1329;DHT22;658;48.820;9.354;2023-06-19T02:28:39;25.60;46.00
1329;DHT22;658;48.820;9.354;2023-06-19T02:32:40;25.60;45.90
1329;DHT22;658;48.820;9.354;2023-06-19T02:36:41;25.60;46.00
1329;DHT22;658;48.820;9.354;2023-06-19T02:40:41;25.60;45.90
1329;DHT22;658;48.820;9.354;2023-06-19T02:44:44;25.60;46.00
1329;DHT22;658;48.820;9.354;2023-06-19T02:48:47;25.60;46.10
1329;DHT22;658;48.820;9.354;2023-06-19T02:52:47;25.60;46.60
1329;DHT22;658;48.820;9.354;2023-06-19T02:56:50;25.60;46.70
1329;DHT22;658;48.820;9.354;2023-06-19T03:00:51;25.50;47.20
1329;DHT22;658;48.820;9.354;2023-06-19T03:04:52;25.50;47.20
1329;DHT22;658;48.820;9.354;2023-06-19T03:08:52;25.50;47.40
1329;DHT22;658;48.820;9.354;2023-06-19T03:12:53;25.50;47.80
1329;DHT22;658;48.820;9.354;2023-06-19T03:16:53;25.40;47.80
1329;DHT22;658;48.820;9.354;2023-06-19T03:20:55;25.50;47.80
1329;DHT22;658;48.820;9.354;2023-06-19T03:24:55;25.40;47.80
1329;DHT22;658;48.820;9.354;2023-06-19T03:28:56;25.50;47.80
1329;DHT22;658;48.820;9.354;2023-06-19T03:32:57;25.40;47.70
1329;DHT22;658;48.820;9.354;2023-06-19T03:36:58;25.40;47.90
1329;DHT22;658;48.820;9.354;2023-06-19T03:40:58;25.40;48.30
1329;DHT22;658;48.820;9.354;2023-06-19T03:44:59;25.40;48.70
1329;DHT22;658;48.820;9.354;2023-06-19T03:48:59;25.40;48.70
1329;DHT22;658;48.820;9.354;2023-06-19T03:53:00;25.40;49.00
1329;DHT22;658;48.820;9.354;2023-06-19T03:57:00;25.40;49.00
1329;DHT22;658;48.820;9.354;2023-06-19T04:01:01;25.30;49.30
1329;DHT22;658;48.820;9.354;2023-06-19T04:05:02;25.30;48.80
1329;DHT22;658;48.820;9.354;2023-06-19T04:09:02;25.40;48.70
1329;DHT22;658;48.820;9.354;2023-06-19T04:13:03;25.30;49.60
1329;DHT22;658;48.820;9.354;2023-06-19T04:17:07;25.30;50.00
1329;DHT22;658;48.820;9.354;2023-06-19T04:21:07;25.30;50.40
1329;DHT22;658;48.820;9.354;2023-06-19T04:25:11;25.30;50.40
1329;DHT22;658;48.820;9.354;2023-06-19T04:29:12;25.30;49.50
1329;DHT22;658;48.820;9.354;2023-06-19T04:33:17;25.30;49.40
1329;DHT22;658;48.820;9.354;2023-06-19T04:37:21;25.30;49.50
1329;DHT22;658;48.820;9.354;2023-06-19T04:41:22;25.30;49.80
1329;DHT22;658;48.820;9.354;2023-06-19T04:45:23;25.30;49.90
1329;DHT22;658;48.820;9.354;2023-06-19T04:49:23;25.30;50.40
1329;DHT22;658;48.820;9.354;2023-06-19T04:53:24;25.20;50.50
1329;DHT22;658;48.820;9.354;2023-06-19T04:57:25;25.30;50.40
1329;DHT22;658;48.820;9.354;2023-06-19T05:01:26;25.20;50.70
1329;DHT22;658;48.820;9.354;2023-06-19T05:05:30;25.10;50.90
1329;DHT22;658;48.820;9.354;2023-06-19T05:09:31;25.10;51.30
1329;DHT22;658;48.820;9.354;2023-06-19T05:13:31;25.10;51.50
1329;DHT22;658;48.820;9.354;2023-06-19T05:17:32;25.00;51.40
1329;DHT22;658;48.820;9.354;2023-06-19T05:21:32;25.00;51.70
1329;DHT22;658;48.820;9.354;2023-06-19T05:25:33;25.00;52.10
1329;DHT22;658;48.820;9.354;2023-06-19T05:29:34;25.00;52.30
1329;DHT22;658;48.820;9.354;2023-06-19T05:33:34;25.00;52.20
1329;DHT22;658;48.820;9.354;2023-06-19T05:37:35;25.00;52.50
1329;DHT22;658;48.820;9.354;2023-06-19T05:41:38;25.00;52.90
1329;DHT22;658;48.820;9.354;2023-06-19T05:45:38;25.00;53.40
1329;DHT22;658;48.820;9.354;2023-06-19T05:49:39;25.00;53.30
1329;DHT22;658;48.820;9.354;2023-06-19T05:53:41;25.10;53.60
1329;DHT22;658;48.820;9.354;2023-06-19T05:57:42;25.00;53.50
1329;DHT22;658;48.820;9.354;2023-06-19T06:01:43;25.00;53.60
1329;DHT22;658;48.820;9.354;2023-06-19T06:05:43;25.10;53.10
1329;DHT22;658;48.820;9.354;2023-06-19T06:09:49;25.10;53.80
1329;DHT22;658;48.820;9.354;2023-06-19T06:13:49;25.20;53.00
1329;DHT22;658;48.820;9.354;2023-06-19T06:17:50;25.30;52.70
1329;DHT22;658;48.820;9.354;2023-06-19T06:21:50;25.30;52.60
1329;DHT22;658;48.820;9.354;2023-06-19T06:25:51;25.40;52.50
1329;DHT22;658;48.820;9.354;2023-06-19T06:29:54;25.40;52.60
1329;DHT22;658;48.820;9.354;2023-06-19T06:33:57;25.40;52.70
1329;DHT22;658;48.820;9.354;2023-06-19T06:37:58;25.50;53.30
1329;DHT22;658;48.820;9.354;2023-06-19T06:42:03;25.40;53.10
1329;DHT22;658;48.820;9.354;2023-06-19T06:46:06;25.40;53.40
1329;DHT22;658;48.820;9.354;2023-06-19T06:50:08;25.40;53.30
1329;DHT22;658;48.820;9.354;2023-06-19T06:54:11;25.40;53.60
1329;DHT22;658;48.820;9.354;2023-06-19T06:58:14;25.60;53.50
1329;DHT22;658;48.820;9.354;2023-06-19T07:02:14;25.60;53.00
1329;DHT22;658;48.820;9.354;2023-06-19T07:06:15;25.70;53.30
1329;DHT22;658;48.820;9.354;2023-06-19T07:10:16;25.80;53.70
1329;DHT22;658;48.820;9.354;2023-06-19T07:14:21;25.90;53.00
1329;DHT22;658;48.820;9.354;2023-06-19T07:18:21;25.90;53.10
1329;DHT22;658;48.820;9.354;2023-06-19T07:22:22;26.00;52.80
1329;DHT22;658;48.820;9.354;2023-06-19T07:26:25;26.00;52.60
1329;DHT22;658;48.820;9.354;2023-06-19T07:30:26;26.00;52.40
1329;DHT22;658;48.820;9.354;2023-06-19T07:34:27;26.10;52.70
1329;DHT22;658;48.820;9.354;2023-06-19T07:38:27;26.10;52.90
1329;DHT22;658;48.820;9.354;2023-06-19T07:42:28;26.20;52.60
1329;DHT22;658;48.820;9.354;2023-06-19T07:46:29;26.20;52.50
1329;DHT22;658;48.820;9.354;2023-06-19T07:50:29;26.20;52.00
1329;DHT22;658;48.820;9.354;2023-06-19T07:54:30;26.30;51.90
1329;DHT22;658;48.820;9.354;2023-06-19T07:58:30;26.30;51.60
1329;DHT22;658;48.820;9.354;2023-06-19T08:02:31;26.30;51.30
1329;DHT22;658;48.820;9.354;2023-06-19T08:06:32;26.30;51.00
1329;DHT22;658;48.820;9.354;2023-06-19T08:10:35;26.40;50.90
1329;DHT22;658;48.820;9.354;2023-06-19T08:14:35;26.40;50.40
1329;DHT22;658;48.820;9.354;2023-06-19T08:18:38;26.40;50.20
1329;DHT22;658;48.820;9.354;2023-06-19T08:22:41;26.40;50.00
1329;DHT22;658;48.820;9.354;2023-06-19T08:26:42;26.40;49.80
1329;DHT22;658;48.820;9.354;2023-06-19T08:30:44;26.50;49.90
1329;DHT22;658;48.820;9.354;2023-06-19T08:34:46;26.60;49.70
1329;DHT22;658;48.820;9.354;2023-06-19T08:38:46;26.60;49.50
1329;DHT22;658;48.820;9.354;2023-06-19T08:42:50;26.60;49.40
1329;DHT22;658;48.820;9.354;2023-06-19T08:46:52;26.60;49.30
1329;DHT22;658;48.820;9.354;2023-06-19T08:50:53;26.70;49.10
1329;DHT22;658;48.820;9.354;2023-06-19T08:54:55;26.80;48.90
1329;DHT22;658;48.820;9.354;2023-06-19T08:59:11;26.70;48.70
1329;DHT22;658;48.820;9.354;2023-06-19T09:03:11;26.80;48.70
1329;DHT22;658;48.820;9.354;2023-06-19T09:07:13;26.80;48.50
1329;DHT22;658;48.820;9.354;2023-06-19T09:11:18;26.80;48.60
1329;DHT22;658;48.820;9.354;2023-06-19T09:15:20;26.80;48.80
1329;DHT22;658;48.820;9.354;2023-06-19T09:19:21;26.90;49.10
1329;DHT22;658;48.820;9.354;2023-06-19T09:23:22;26.90;49.00
1329;DHT22;658;48.820;9.354;2023-06-19T09:27:23;26.90;48.90
1329;DHT22;658;48.820;9.354;2023-06-19T09:31:33;26.90;49.40
1329;DHT22;658;48.820;9.354;2023-06-19T09:35:34;27.00;49.20
1329;DHT22;658;48.820;9.354;2023-06-19T09:39:39;27.00;48.60
1329;DHT22;658;48.820;9.354;2023-06-19T09:43:42;27.10;48.60
1329;DHT22;658;48.820;9.354;2023-06-19T09:47:45;27.10;49.20
1329;DHT22;658;48.820;9.354;2023-06-19T09:51:47;27.20;48.60
1329;DHT22;658;48.820;9.354;2023-06-19T09:55:50;27.20;48.50
1329;DHT22;658;48.820;9.354;2023-06-19T09:59:55;27.30;48.40
1329;DHT22;658;48.820;9.354;2023-06-19T10:04:07;27.40;48.30
1329;DHT22;658;48.820;9.354;2023-06-19T10:08:09;27.30;48.10
1329;DHT22;658;48.820;9.354;2023-06-19T10:12:12;27.30;48.30
1329;DHT22;658;48.820;9.354;2023-06-19T10:16:23;27.40;48.40
1329;DHT22;658;48.820;9.354;2023-06-19T10:20:28;27.40;48.30
1329;DHT22;658;48.820;9.354;2023-06-19T10:24:37;27.50;47.90
1329;DHT22;658;48.820;9.354;2023-06-19T10:28:38;27.40;48.10
1329;DHT22;658;48.820;9.354;2023-06-19T10:32:38;27.50;48.30
1329;DHT22;658;48.820;9.354;2023-06-19T10:36:39;27.60;48.00
1329;DHT22;658;48.820;9.354;2023-06-19T10:40:40;27.50;47.80
1329;DHT22;658;48.820;9.354;2023-06-19T10:44:40;27.60;47.90
1329;DHT22;658;48.820;9.354;2023-06-19T10:48:42;27.60;47.60
1329;DHT22;658;48.820;9.354;2023-06-19T10:52:44;27.70;47.50
1329;DHT22;658;48.820;9.354;2023-06-19T10:56:45;27.70;47.40
1329;DHT22;658;48.820;9.354;2023-06-19T11:00:48;27.70;47.20
1329;DHT22;658;48.820;9.354;2023-06-19T11:04:52;27.80;47.10
1329;DHT22;658;48.820;9.354;2023-06-19T11:08:53;27.90;46.90
1329;DHT22;658;48.820;9.354;2023-06-19T11:12:55;27.90;47.60
1329;DHT22;658;48.820;9.354;2023-06-19T11:16:56;28.00;48.10
1329;DHT22;658;48.820;9.354;2023-06-19T11:20:56;28.00;48.20
1329;DHT22;658;48.820;9.354;2023-06-19T11:25:02;28.00;48.40
1329;DHT22;658;48.820;9.354;2023-06-19T11:29:25;27.90;48.40
1329;DHT22;658;48.820;9.354;2023-06-19T11:33:26;27.90;48.50
1329;DHT22;658;48.820;9.354;2023-06-19T11:37:29;27.90;48.50
1329;DHT22;658;48.820;9.354;2023-06-19T11:41:30;27.90;48.70
1329;DHT22;658;48.820;9.354;2023-06-19T11:45:30;28.00;48.30
1329;DHT22;658;48.820;9.354;2023-06-19T11:49:36;28.00;48.30
1329;DHT22;658;48.820;9.354;2023-06-19T11:53:36;28.10;48.40
1329;DHT22;658;48.820;9.354;2023-06-19T11:57:38;28.10;48.50
1329;DHT22;658;48.820;9.354;2023-06-19T12:01:42;28.20;51.20
1329;DHT22;658;48.820;9.354;2023-06-19T12:05:42;28.30;51.10
1329;DHT22;658;48.820;9.354;2023-06-19T12:09:43;28.40;50.50
1329;DHT22;658;48.820;9.354;2023-06-19T12:13:46;28.50;52.70
1329;DHT22;658;48.820;9.354;2023-06-19T12:17:48;28.50;50.90
1329;DHT22;658;48.820;9.354;2023-06-19T12:21:48;28.60;49.80
1329;DHT22;658;48.820;9.354;2023-06-19T12:25:49;28.60;48.50
1329;DHT22;658;48.820;9.354;2023-06-19T12:29:49;28.60;48.80
1329;DHT22;658;48.820;9.354;2023-06-19T12:33:50;28.70;48.90
1329;DHT22;658;48.820;9.354;2023-06-19T12:37:51;28.80;49.70
1329;DHT22;658;48.820;9.354;2023-06-19T12:41:52;28.80;48.00
1329;DHT22;658;48.820;9.354;2023-06-19T12:45:53;28.90;48.10
1329;DHT22;658;48.820;9.354;2023-06-19T12:49:54;28.90;47.70
1329;DHT22;658;48.820;9.354;2023-06-19T12:53:55;29.00;48.30
1329;DHT22;658;48.820;9.354;2023-06-19T12:57:57;29.00;48.50
1329;DHT22;658;48.820;9.354;2023-06-19T13:01:58;29.00;47.80
1329;DHT22;658;48.820;9.354;2023-06-19T13:05:58;29.10;47.70
1329;DHT22;658;48.820;9.354;2023-06-19T13:09:59;29.20;46.90
1329;DHT22;658;48.820;9.354;2023-06-19T13:14:00;29.20;46.80
1329;DHT22;658;48.820;9.354;2023-06-19T13:18:01;29.20;46.70
1329;DHT22;658;48.820;9.354;2023-06-19T13:22:02;29.20;46.70
1329;DHT22;658;48.820;9.354;2023-06-19T13:26:05;29.20;46.50
1329;DHT22;658;48.820;9.354;2023-06-19T13:30:06;29.20;46.50
1329;DHT22;658;48.820;9.354;2023-06-19T13:34:07;29.20;46.40
1329;DHT22;658;48.820;9.354;2023-06-19T13:38:08;29.20;46.40
1329;DHT22;658;48.820;9.354;2023-06-19T13:42:10;29.20;46.70
1329;DHT22;658;48.820;9.354;2023-06-19T13:46:11;29.20;46.70
1329;DHT22;658;48.820;9.354;2023-06-19T13:50:15;29.20;46.70
1329;DHT22;658;48.820;9.354;2023-06-19T13:54:19;29.20;46.90
1329;DHT22;658;48.820;9.354;2023-06-19T13:58:21;29.20;46.70
1329;DHT22;658;48.820;9.354;2023-06-19T14:02:21;29.20;47.20
1329;DHT22;658;48.820;9.354;2023-06-19T14:06:24;29.10;46.60
1329;DHT22;658;48.820;9.354;2023-06-19T14:10:25;29.10;46.60
1329;DHT22;658;48.820;9.354;2023-06-19T14:14:26;29.10;46.60
1329;DHT22;658;48.820;9.354;2023-06-19T14:18:26;29.00;47.20
1329;DHT22;658;48.820;9.354;2023-06-19T14:22:27;29.00;47.00
1329;DHT22;658;48.820;9.354;2023-06-19T14:26:27;29.10;47.20
1329;DHT22;658;48.820;9.354;2023-06-19T14:30:28;29.00;47.90
1329;DHT22;658;48.820;9.354;2023-06-19T14:34:31;29.00;48.10
1329;DHT22;658;48.820;9.354;2023-06-19T14:38:31;29.00;47.70
1329;DHT22;658;48.820;9.354;2023-06-19T14:42:33;29.00;48.20
1329;DHT22;658;48.820;9.354;2023-06-19T14:46:34;29.00;47.90
1329;DHT22;658;48.820;9.354;2023-06-19T14:50:39;29.00;47.30
1329;DHT22;658;48.820;9.354;2023-06-19T14:54:40;29.00;47.20
1329;DHT22;658;48.820;9.354;2023-06-19T14:58:40;29.00;47.30
1329;DHT22;658;48.820;9.354;2023-06-19T15:02:43;29.00;47.30
1329;DHT22;658;48.820;9.354;2023-06-19T15:06:44;29.00;47.20
1329;DHT22;658;48.820;9.354;2023-06-19T15:10:44;29.00;47.20
1329;DHT22;658;48.820;9.354;2023-06-19T15:14:45;29.00;47.30
1329;DHT22;658;48.820;9.354;2023-06-19T15:18:45;29.00;47.30
1329;DHT22;658;48.820;9.354;2023-06-19T15:22:49;28.90;47.20
1329;DHT22;658;48.820;9.354;2023-06-19T15:26:49;28.90;47.20
1329;DHT22;658;48.820;9.354;2023-06-19T15:30:50;28.90;47.10
1329;DHT22;658;48.820;9.354;2023-06-19T15:34:51;28.90;47.10
1329;DHT22;658;48.820;9.354;2023-06-19T15:38:51;28.90;47.10
1329;DHT22;658;48.820;9.354;2023-06-19T15:42:54;28.90;48.00
1329;DHT22;658;48.820;9.354;2023-06-19T15:46:55;28.90;48.20
1329;DHT22;658;48.820;9.354;2023-06-19T15:50:56;28.90;48.20
1329;DHT22;658;48.820;9.354;2023-06-19T15:54:56;28.90;49.30
1329;DHT22;658;48.820;9.354;2023-06-19T15:58:57;28.90;48.10
1329;DHT22;658;48.820;9.354;2023-06-19T16:02:57;28.90;48.30
1329;DHT22;658;48.820;9.354;2023-06-19T16:07:00;28.90;47.90
1329;DHT22;658;48.820;9.354;2023-06-19T16:11:04;28.90;48.50
1329;DHT22;658;48.820;9.354;2023-06-19T16:15:08;29.00;49.10
1329;DHT22;658;48.820;9.354;2023-06-19T16:19:09;29.00;48.70
1329;DHT22;658;48.820;9.354;2023-06-19T16:23:10;29.00;48.90
1329;DHT22;658;48.820;9.354;2023-06-19T16:27:13;29.00;48.10
1329;DHT22;658;48.820;9.354;2023-06-19T16:31:13;29.00;48.00
1329;DHT22;658;48.820;9.354;2023-06-19T16:35:16;29.00;47.80
1329;DHT22;658;48.820;9.354;2023-06-19T16:39:22;29.00;47.60
1329;DHT22;658;48.820;9.354;2023-06-19T16:43:23;29.00;47.50
1329;DHT22;658;48.820;9.354;2023-06-19T16:47:23;29.00;47.60
1329;DHT22;658;48.820;9.354;2023-06-19T16:51:24;29.00;47.50
1329;DHT22;658;48.820;9.354;2023-06-19T16:55:24;29.00;47.50
1329;DHT22;658;48.820;9.354;2023-06-19T16:59:25;29.00;47.50
1329;DHT22;658;48.820;9.354;2023-06-19T17:03:26;29.00;47.50
1329;DHT22;658;48.820;9.354;2023-06-19T17:07:27;29.00;47.40
1329;DHT22;658;48.820;9.354;2023-06-19T17:11:27;29.00;47.50
1329;DHT22;658;48.820;9.354;2023-06-19T17:15:28;29.00;47.60
1329;DHT22;658;48.820;9.354;2023-06-19T17:19:30;29.00;47.60
1329;DHT22;658;48.820;9.354;2023-06-19T17:23:31;29.00;48.10
1329;DHT22;658;48.820;9.354;2023-06-19T17:27:32;29.00;47.90
1329;DHT22;658;48.820;9.354;2023-06-19T17:31:32;29.00;48.20
1329;DHT22;658;48.820;9.354;2023-06-19T17:35:33;29.00;48.40
1329;DHT22;658;48.820;9.354;2023-06-19T17:39:34;29.00;48.50
1329;DHT22;658;48.820;9.354;2023-06-19T17:43:34;29.00;48.70
1329;DHT22;658;48.820;9.354;2023-06-19T17:47:35;28.90;48.80
1329;DHT22;658;48.820;9.354;2023-06-19T17:51:35;28.90;48.70
1329;DHT22;658;48.820;9.354;2023-06-19T17:55:36;28.90;48.90
1329;DHT22;658;48.820;9.354;2023-06-19T17:59:36;28.90;48.70
1329;DHT22;658;48.820;9.354;2023-06-19T18:03:37;28.90;48.70
1329;DHT22;658;48.820;9.354;2023-06-19T18:07:37;28.90;48.60
1329;DHT22;658;48.820;9.354;2023-06-19T18:11:38;29.00;48.60
1329;DHT22;658;48.820;9.354;2023-06-19T18:15:39;29.00;48.50
1329;DHT22;658;48.820;9.354;2023-06-19T18:19:39;29.10;48.40
1329;DHT22;658;48.820;9.354;2023-06-19T18:23:40;29.20;48.20
1329;DHT22;658;48.820;9.354;2023-06-19T18:27:41;29.30;48.10
1329;DHT22;658;48.820;9.354;2023-06-19T18:31:42;29.40;47.90
1329;DHT22;658;48.820;9.354;2023-06-19T18:35:42;29.50;47.90
1329;DHT22;658;48.820;9.354;2023-06-19T18:39:45;29.50;47.80
1329;DHT22;658;48.820;9.354;2023-06-19T18:43:46;29.50;47.90
1329;DHT22;658;48.820;9.354;2023-06-19T18:47:46;29.50;48.00
1329;DHT22;658;48.820;9.354;2023-06-19T18:51:47;29.40;48.20
1329;DHT22;658;48.820;9.354;2023-06-19T18:55:48;29.30;48.40
1329;DHT22;658;48.820;9.354;2023-06-19T18:59:48;29.30;48.60
1329;DHT22;658;48.820;9.354;2023-06-19T19:03:49;29.20;48.90
1329;DHT22;658;48.820;9.354;2023-06-19T19:07:49;29.20;49.00
1329;DHT22;658;48.820;9.354;2023-06-19T19:11:50;29.10;49.20
1329;DHT22;658;48.820;9.354;2023-06-19T19:15:51;29.10;49.40
1329;DHT22;658;48.820;9.354;2023-06-19T19:19:51;29.00;49.60
1329;DHT22;658;48.820;9.354;2023-06-19T19:23:52;29.00;49.90
1329;DHT22;658;48.820;9.354;2023-06-19T19:27:53;28.90;50.10
1329;DHT22;658;48.820;9.354;2023-06-19T19:31:53;28.90;49.80
1329;DHT22;658;48.820;9.354;2023-06-19T19:35:54;28.80;50.00
1329;DHT22;658;48.820;9.354;2023-06-19T19:39:55;28.80;50.30
1329;DHT22;658;48.820;9.354;2023-06-19T19:43:57;28.70;51.20
1329;DHT22;658;48.820;9.354;2023-06-19T19:47:59;28.60;51.70
1329;DHT22;658;48.820;9.354;2023-06-19T19:52:02;28.50;52.30
1329;DHT22;658;48.820;9.354;2023-06-19T19:56:03;28.40;52.70
1329;DHT22;658;48.820;9.354;2023-06-19T20:00:05;28.30;52.20
1329;DHT22;658;48.820;9.354;2023-06-19T20:04:06;28.30;53.20
1329;DHT22;658;48.820;9.354;2023-06-19T20:08:07;28.20;53.40
1329;DHT22;658;48.820;9.354;2023-06-19T20:12:08;28.10;53.80
1329;DHT22;658;48.820;9.354;2023-06-19T20:16:09;28.00;53.80
1329;DHT22;658;48.820;9.354;2023-06-19T20:20:12;27.90;54.20
1329;DHT22;658;48.820;9.354;2023-06-19T20:24:13;27.90;54.40
1329;DHT22;658;48.820;9.354;2023-06-19T20:28:14;27.80;54.60
1329;DHT22;658;48.820;9.354;2023-06-19T20:32:14;27.70;54.80
1329;DHT22;658;48.820;9.354;2023-06-19T20:36:15;27.70;55.00
1329;DHT22;658;48.820;9.354;2023-06-19T20:40:15;27.60;54.60
1329;DHT22;658;48.820;9.354;2023-06-19T20:44:17;27.60;54.20
1329;DHT22;658;48.820;9.354;2023-06-19T20:48:17;27.70;53.20
1329;DHT22;658;48.820;9.354;2023-06-19T20:52:18;27.70;52.30
1329;DHT22;658;48.820;9.354;2023-06-19T20:56:19;27.70;52.50
1329;DHT22;658;48.820;9.354;2023-06-19T21:00:20;27.80;52.70
1329;DHT22;658;48.820;9.354;2023-06-19T21:04:20;27.70;51.00
1329;DHT22;658;48.820;9.354;2023-06-19T21:08:21;27.60;51.20
1329;DHT22;658;48.820;9.354;2023-06-19T21:12:29;27.60;51.60
1329;DHT22;658;48.820;9.354;2023-06-19T21:16:31;27.60;52.20
1329;DHT22;658;48.820;9.354;2023-06-19T21:20:32;27.60;51.60
1329;DHT22;658;48.820;9.354;2023-06-19T21:24:37;27.60;51.40
1329;DHT22;658;48.820;9.354;2023-06-19T21:28:38;27.60;52.40
1329;DHT22;658;48.820;9.354;2023-06-19T21:32:39;27.60;52.20
1329;DHT22;658;48.820;9.354;2023-06-19T21:36:39;27.60;52.50
1329;DHT22;658;48.820;9.354;2023-06-19T21:40:40;27.60;52.50
1329;DHT22;658;48.820;9.354;2023-06-19T21:44:43;27.50;51.50
1329;DHT22;658;48.820;9.354;2023-06-19T21:48:43;27.50;52.30
1329;DHT22;658;48.820;9.354;2023-06-19T21:52:44;27.50;52.40
1329;DHT22;658;48.820;9.354;2023-06-19T21:56:45;27.50;52.30
1329;DHT22;658;48.820;9.354;2023-06-19T22:00:46;27.50;52.60
1329;DHT22;658;48.820;9.354;2023-06-19T22:04:46;27.50;52.80
1329;DHT22;658;48.820;9.354;2023-06-19T22:08:47;27.40;52.70
1329;DHT22;658;48.820;9.354;2023-06-19T22:12:47;27.40;52.90
1329;DHT22;658;48.820;9.354;2023-06-19T22:16:48;27.40;52.90
1329;DHT22;658;48.820;9.354;2023-06-19T22:20:48;27.40;52.90
1329;DHT22;658;48.820;9.354;2023-06-19T22:24:49;27.40;51.80
1329;DHT22;658;48.820;9.354;2023-06-19T22:28:51;27.40;52.80
1329;DHT22;658;48.820;9.354;2023-06-19T22:32:51;27.40;52.80
1329;DHT22;658;48.820;9.354;2023-06-19T22:36:52;27.40;52.90
1329;DHT22;658;48.820;9.354;2023-06-19T22:40:52;27.30;52.10
1329;DHT22;658;48.820;9.354;2023-06-19T22:44:53;27.30;52.10
1329;DHT22;658;48.820;9.354;2023-06-19T22:48:54;27.30;52.00
1329;DHT22;658;48.820;9.354;2023-06-19T22:52:54;27.30;52.10
1329;DHT22;658;48.820;9.354;2023-06-19T22:56:55;27.30;53.00
1329;DHT22;658;48.820;9.354;2023-06-19T23:00:58;27.20;53.00
1329;DHT22;658;48.820;9.354;2023-06-19T23:04:59;27.20;52.70
1329;DHT22;658;48.820;9.354;2023-06-19T23:08:59;27.30;52.90
1329;DHT22;658;48.820;9.354;2023-06-19T23:13:00;27.20;52.10
1329;DHT22;658;48.820;9.354;2023-06-19T23:17:01;27.20;52.50
1329;DHT22;658;48.820;9.354;2023-06-19T23:21:02;27.20;52.00
1329;DHT22;658;48.820;9.354;2023-06-19T23:25:03;27.20;52.20
1329;DHT22;658;48.820;9.354;2023-06-19T23:29:03;27.20;52.80
1329;DHT22;658;48.820;9.354;2023-06-19T23:33:07;27.10;53.00
1329;DHT22;658;48.820;9.354;2023-06-19T23:37:08;27.10;52.20
1329;DHT22;658;48.820;9.354;2023-06-19T23:41:11;27.10;52.30
1329;DHT22;658;48.820;9.354;2023-06-19T23:45:12;27.10;52.40
1329;DHT22;658;48.820;9.354;2023-06-19T23:49:12;27.10;52.30
1329;DHT22;658;48.820;9.354;2023-06-19T23:53:13;27.10;53.00
1329;DHT22;658;48.820;9.354;2023-06-19T23:57:13;27.10;52.30
